Neotsu, OR (97364)

01:35 PST le 28 novembre 2014 (GMT -0800)
Aeolian Way Chesterhill | Change Station
CLOSE
Current Station
Stations météorologiques personnelles
Location: Neskowin, OR
Altitude: 381 ft
Stations météo à proximité
Avis météorologiques actifs: Special Statement Préavis actif: Record Report

Alt. 381 ft 45.14 °N, 123.96 °W | Updated 6 seconds ago

Pluie
Pluie
54.1 ° F
Paraît 54.1 ° F
N
2.9
Vent Variable Vent de Sud
Gusts 5.0 mph

Aujourd'hui
Haut(e) -- | Bas -- ° F
--% Risque de précip.
Hier
Haut(e) -- | Bas -- ° F
Precip. -- pouce
7:30 AM 4:37 PM
Lune montante, 38% visible
Pression 29.81 pouce
Visibilité 5.0 Miles terrestres
Nuages Nuageux 800 ft
Couvert 1400 ft
Point de rosée 53 ° F
Humidité 96%
Précipitations 0.09 pouce
Profondeur de la couche neigeuse Non disponible.
UV 0 sur 12
Pollen .10 sur 12
Qualité de l'air Non disponible.
Flu Activity Non disponible.
METAR KONP 280915Z AUTO 19011KT 5SM DZ BKN008 OVC014 12/11 A2981 RMK AO2

More Conditions Fewer Conditions

Pression 29.81 pouce
Visibilité 5.0 Miles terrestres
Nuages Nuageux 800 ft
Couvert 1400 ft
Point de rosée 53 ° F
Humidité 96%
Précipitations 0.09 pouce
Profondeur de la couche neigeuse Non disponible.
UV 0 sur 12
Pollen .10 sur 12
Qualité de l'air Non disponible.
Flu Activity Non disponible.
METAR KONP 280915Z AUTO 19011KT 5SM DZ BKN008 OVC014 12/11 A2981 RMK AO2

More Conditions Fewer Conditions

10-Day Weather Forecast

Almanac

Astronomie

Nov. 28, 2014 Lever Coucher
Temps réel
Crépuscule civil
Crépuscule nautique
Crépuscule astronomique
Lune
Durée de lumière visible
Longueur du jour
Tomorrow will be .
, % of the Moon is Illuminated

Extrêmes aujourd'hui

State Highs State Lows

Community

WunderPhotos

Upload Photos

1,774,190 Photos téléchargées !

WunderBlogs® & News

Nearby

Qualité de l'air

  Qualité de l'air Indice de la qualité de l'air Polluant
Not available.

Épaisseur de neige

Station Depth Altitude

Activité sismique

Ville Distance Mag. Time & Date
Minimum magnitude displayed is 2.5.

Températures des eaux côtières

Lieu Température

Stations météo à proximité